sensor_id;sensor_type;location;lat;lon;timestamp;temperature;humidity
13616;DHT22;6879;51.368;6.782;2022-10-16T00:01:39;12.60;99.90
13616;DHT22;6879;51.368;6.782;2022-10-16T00:04:09;12.60;99.90
13616;DHT22;6879;51.368;6.782;2022-10-16T00:06:38;12.60;99.90
13616;DHT22;6879;51.368;6.782;2022-10-16T00:09:07;12.80;99.90
13616;DHT22;6879;51.368;6.782;2022-10-16T00:11:37;12.80;99.90
13616;DHT22;6879;51.368;6.782;2022-10-16T00:14:10;12.80;99.90
13616;DHT22;6879;51.368;6.782;2022-10-16T00:16:40;12.80;99.90
13616;DHT22;6879;51.368;6.782;2022-10-16T00:19:09;12.80;99.90
13616;DHT22;6879;51.368;6.782;2022-10-16T00:21:38;12.80;99.90
13616;DHT22;6879;51.368;6.782;2022-10-16T00:24:08;12.80;99.90
13616;DHT22;6879;51.368;6.782;2022-10-16T00:26:38;12.80;99.90
13616;DHT22;6879;51.368;6.782;2022-10-16T00:29:08;12.90;99.90
13616;DHT22;6879;51.368;6.782;2022-10-16T00:31:37;13.00;99.90
13616;DHT22;6879;51.368;6.782;2022-10-16T00:34:05;13.10;99.90
13616;DHT22;6879;51.368;6.782;2022-10-16T00:36:34;13.10;99.90
13616;DHT22;6879;51.368;6.782;2022-10-16T00:39:02;13.00;99.90
13616;DHT22;6879;51.368;6.782;2022-10-16T00:41:31;13.10;99.90
13616;DHT22;6879;51.368;6.782;2022-10-16T00:44:02;13.10;99.90
13616;DHT22;6879;51.368;6.782;2022-10-16T00:46:37;13.10;99.90
13616;DHT22;6879;51.368;6.782;2022-10-16T00:49:09;13.20;99.90
13616;DHT22;6879;51.368;6.782;2022-10-16T00:51:39;13.20;99.90
13616;DHT22;6879;51.368;6.782;2022-10-16T00:54:11;13.10;99.90
13616;DHT22;6879;51.368;6.782;2022-10-16T00:56:41;13.10;99.90
13616;DHT22;6879;51.368;6.782;2022-10-16T00:59:15;13.20;99.90
13616;DHT22;6879;51.368;6.782;2022-10-16T01:01:45;13.30;99.90
13616;DHT22;6879;51.368;6.782;2022-10-16T01:04:14;13.30;99.90
13616;DHT22;6879;51.368;6.782;2022-10-16T01:06:48;13.40;99.90
13616;DHT22;6879;51.368;6.782;2022-10-16T01:09:25;13.30;99.90
13616;DHT22;6879;51.368;6.782;2022-10-16T01:12:06;13.30;99.90
13616;DHT22;6879;51.368;6.782;2022-10-16T01:14:45;13.20;99.90
13616;DHT22;6879;51.368;6.782;2022-10-16T01:17:20;13.20;99.90
13616;DHT22;6879;51.368;6.782;2022-10-16T01:20:09;13.00;99.90
13616;DHT22;6879;51.368;6.782;2022-10-16T01:22:46;12.90;99.90
13616;DHT22;6879;51.368;6.782;2022-10-16T01:25:22;12.90;99.90
13616;DHT22;6879;51.368;6.782;2022-10-16T01:27:55;12.90;99.90
13616;DHT22;6879;51.368;6.782;2022-10-16T01:30:31;13.00;99.90
13616;DHT22;6879;51.368;6.782;2022-10-16T01:33:03;13.00;99.90
13616;DHT22;6879;51.368;6.782;2022-10-16T01:35:38;13.10;99.90
13616;DHT22;6879;51.368;6.782;2022-10-16T01:38:10;13.10;99.90
13616;DHT22;6879;51.368;6.782;2022-10-16T01:40:52;13.20;99.90
13616;DHT22;6879;51.368;6.782;2022-10-16T01:43:28;13.20;99.90
13616;DHT22;6879;51.368;6.782;2022-10-16T01:45:59;13.10;99.90
13616;DHT22;6879;51.368;6.782;2022-10-16T01:48:29;13.20;99.90
13616;DHT22;6879;51.368;6.782;2022-10-16T01:51:04;13.20;99.90
13616;DHT22;6879;51.368;6.782;2022-10-16T01:53:33;13.30;99.90
13616;DHT22;6879;51.368;6.782;2022-10-16T01:56:04;13.30;99.90
13616;DHT22;6879;51.368;6.782;2022-10-16T01:58:39;13.30;99.90
13616;DHT22;6879;51.368;6.782;2022-10-16T02:01:10;13.20;99.90
13616;DHT22;6879;51.368;6.782;2022-10-16T02:03:41;13.20;99.90
13616;DHT22;6879;51.368;6.782;2022-10-16T02:06:12;13.10;99.90
13616;DHT22;6879;51.368;6.782;2022-10-16T02:08:43;13.10;99.90
13616;DHT22;6879;51.368;6.782;2022-10-16T02:11:12;13.00;99.90
13616;DHT22;6879;51.368;6.782;2022-10-16T02:13:45;13.00;99.90
13616;DHT22;6879;51.368;6.782;2022-10-16T02:16:15;13.00;99.90
13616;DHT22;6879;51.368;6.782;2022-10-16T02:18:44;13.00;99.90
13616;DHT22;6879;51.368;6.782;2022-10-16T02:21:16;13.00;99.90
13616;DHT22;6879;51.368;6.782;2022-10-16T02:23:51;13.00;99.90
13616;DHT22;6879;51.368;6.782;2022-10-16T02:26:27;13.20;99.90
13616;DHT22;6879;51.368;6.782;2022-10-16T02:29:01;13.20;99.90
13616;DHT22;6879;51.368;6.782;2022-10-16T02:31:35;13.30;99.90
13616;DHT22;6879;51.368;6.782;2022-10-16T02:34:06;13.40;99.90
13616;DHT22;6879;51.368;6.782;2022-10-16T02:36:36;13.50;99.90
13616;DHT22;6879;51.368;6.782;2022-10-16T02:39:05;13.50;99.90
13616;DHT22;6879;51.368;6.782;2022-10-16T02:41:35;13.60;99.90
13616;DHT22;6879;51.368;6.782;2022-10-16T02:44:05;13.60;99.90
13616;DHT22;6879;51.368;6.782;2022-10-16T02:46:33;13.60;99.90
13616;DHT22;6879;51.368;6.782;2022-10-16T02:49:02;13.60;99.90
13616;DHT22;6879;51.368;6.782;2022-10-16T02:51:31;13.60;99.90
13616;DHT22;6879;51.368;6.782;2022-10-16T02:53:59;13.70;99.90
13616;DHT22;6879;51.368;6.782;2022-10-16T02:56:28;13.70;99.90
13616;DHT22;6879;51.368;6.782;2022-10-16T02:58:57;13.70;99.90
13616;DHT22;6879;51.368;6.782;2022-10-16T03:01:27;13.70;99.90
13616;DHT22;6879;51.368;6.782;2022-10-16T03:03:56;13.70;99.90
13616;DHT22;6879;51.368;6.782;2022-10-16T03:06:24;13.70;99.90
13616;DHT22;6879;51.368;6.782;2022-10-16T03:08:53;13.70;99.90
13616;DHT22;6879;51.368;6.782;2022-10-16T03:11:21;13.70;99.90
13616;DHT22;6879;51.368;6.782;2022-10-16T03:13:49;13.70;99.90
13616;DHT22;6879;51.368;6.782;2022-10-16T03:16:18;13.70;99.90
13616;DHT22;6879;51.368;6.782;2022-10-16T03:18:49;13.60;99.90
13616;DHT22;6879;51.368;6.782;2022-10-16T03:21:18;13.50;99.90
13616;DHT22;6879;51.368;6.782;2022-10-16T03:23:46;13.50;99.90
13616;DHT22;6879;51.368;6.782;2022-10-16T03:26:15;13.50;99.90
13616;DHT22;6879;51.368;6.782;2022-10-16T03:28:43;13.50;99.90
13616;DHT22;6879;51.368;6.782;2022-10-16T03:31:12;13.50;99.90
13616;DHT22;6879;51.368;6.782;2022-10-16T03:33:40;13.40;99.90
13616;DHT22;6879;51.368;6.782;2022-10-16T03:36:10;13.40;99.90
13616;DHT22;6879;51.368;6.782;2022-10-16T03:38:39;13.40;99.90
13616;DHT22;6879;51.368;6.782;2022-10-16T03:41:07;13.30;99.90
13616;DHT22;6879;51.368;6.782;2022-10-16T03:43:35;13.30;99.90
13616;DHT22;6879;51.368;6.782;2022-10-16T03:46:04;13.30;99.90
13616;DHT22;6879;51.368;6.782;2022-10-16T03:48:33;13.30;99.90
13616;DHT22;6879;51.368;6.782;2022-10-16T03:51:01;13.30;99.90
13616;DHT22;6879;51.368;6.782;2022-10-16T03:53:31;13.30;99.90
13616;DHT22;6879;51.368;6.782;2022-10-16T03:55:59;13.20;99.90
13616;DHT22;6879;51.368;6.782;2022-10-16T03:58:28;13.20;99.90
13616;DHT22;6879;51.368;6.782;2022-10-16T04:00:56;13.20;99.90
13616;DHT22;6879;51.368;6.782;2022-10-16T04:03:25;13.10;99.90
13616;DHT22;6879;51.368;6.782;2022-10-16T04:05:53;12.90;99.90
13616;DHT22;6879;51.368;6.782;2022-10-16T04:08:25;12.90;99.90
13616;DHT22;6879;51.368;6.782;2022-10-16T04:10:55;12.80;99.90
13616;DHT22;6879;51.368;6.782;2022-10-16T04:13:23;12.80;99.90
13616;DHT22;6879;51.368;6.782;2022-10-16T04:15:51;12.80;99.90
13616;DHT22;6879;51.368;6.782;2022-10-16T04:18:20;12.60;99.90
13616;DHT22;6879;51.368;6.782;2022-10-16T04:20:48;12.60;99.90
13616;DHT22;6879;51.368;6.782;2022-10-16T04:23:17;12.50;99.90
13616;DHT22;6879;51.368;6.782;2022-10-16T04:25:45;12.40;99.90
13616;DHT22;6879;51.368;6.782;2022-10-16T04:28:15;12.30;99.90
13616;DHT22;6879;51.368;6.782;2022-10-16T04:30:43;12.30;99.90
13616;DHT22;6879;51.368;6.782;2022-10-16T04:33:12;12.30;99.90
13616;DHT22;6879;51.368;6.782;2022-10-16T04:35:40;12.40;99.90
13616;DHT22;6879;51.368;6.782;2022-10-16T04:38:09;12.30;99.90
13616;DHT22;6879;51.368;6.782;2022-10-16T04:40:37;12.30;99.90
13616;DHT22;6879;51.368;6.782;2022-10-16T04:43:06;12.40;99.90
13616;DHT22;6879;51.368;6.782;2022-10-16T04:45:36;12.40;99.90
13616;DHT22;6879;51.368;6.782;2022-10-16T04:48:05;12.40;99.90
13616;DHT22;6879;51.368;6.782;2022-10-16T04:50:33;12.40;99.90
13616;DHT22;6879;51.368;6.782;2022-10-16T04:53:05;12.40;99.90
13616;DHT22;6879;51.368;6.782;2022-10-16T04:55:34;12.40;99.90
13616;DHT22;6879;51.368;6.782;2022-10-16T04:58:02;12.40;99.90
13616;DHT22;6879;51.368;6.782;2022-10-16T05:00:31;12.40;99.90
13616;DHT22;6879;51.368;6.782;2022-10-16T05:03:01;12.50;99.90
13616;DHT22;6879;51.368;6.782;2022-10-16T05:05:33;12.50;99.90
13616;DHT22;6879;51.368;6.782;2022-10-16T05:08:01;12.50;99.90
13616;DHT22;6879;51.368;6.782;2022-10-16T05:10:31;12.50;99.90
13616;DHT22;6879;51.368;6.782;2022-10-16T05:12:59;12.60;99.90
13616;DHT22;6879;51.368;6.782;2022-10-16T05:15:27;12.60;99.90
13616;DHT22;6879;51.368;6.782;2022-10-16T05:17:56;12.60;99.90
13616;DHT22;6879;51.368;6.782;2022-10-16T05:20:26;12.60;99.90
13616;DHT22;6879;51.368;6.782;2022-10-16T05:22:54;12.70;99.90
13616;DHT22;6879;51.368;6.782;2022-10-16T05:25:22;12.80;99.90
13616;DHT22;6879;51.368;6.782;2022-10-16T05:27:51;12.80;99.90
13616;DHT22;6879;51.368;6.782;2022-10-16T05:30:20;12.80;99.90
13616;DHT22;6879;51.368;6.782;2022-10-16T05:32:49;12.80;99.90
13616;DHT22;6879;51.368;6.782;2022-10-16T05:35:19;12.80;99.90
13616;DHT22;6879;51.368;6.782;2022-10-16T05:37:49;12.80;99.90
13616;DHT22;6879;51.368;6.782;2022-10-16T05:40:19;12.80;99.90
13616;DHT22;6879;51.368;6.782;2022-10-16T05:42:48;12.90;99.90
13616;DHT22;6879;51.368;6.782;2022-10-16T05:45:17;12.90;99.90
13616;DHT22;6879;51.368;6.782;2022-10-16T05:47:45;12.90;99.90
13616;DHT22;6879;51.368;6.782;2022-10-16T05:50:14;12.80;99.90
13616;DHT22;6879;51.368;6.782;2022-10-16T05:52:42;12.70;99.90
13616;DHT22;6879;51.368;6.782;2022-10-16T05:55:12;12.80;99.90
13616;DHT22;6879;51.368;6.782;2022-10-16T05:57:41;12.70;99.90
13616;DHT22;6879;51.368;6.782;2022-10-16T06:00:10;12.70;99.90
13616;DHT22;6879;51.368;6.782;2022-10-16T06:02:39;12.70;99.90
13616;DHT22;6879;51.368;6.782;2022-10-16T06:05:07;12.60;99.90
13616;DHT22;6879;51.368;6.782;2022-10-16T06:07:36;12.60;99.90
13616;DHT22;6879;51.368;6.782;2022-10-16T06:10:05;12.60;99.90
13616;DHT22;6879;51.368;6.782;2022-10-16T06:12:36;12.50;99.90
13616;DHT22;6879;51.368;6.782;2022-10-16T06:15:05;12.50;99.90
13616;DHT22;6879;51.368;6.782;2022-10-16T06:17:33;12.60;99.90
13616;DHT22;6879;51.368;6.782;2022-10-16T06:20:02;12.60;99.90
13616;DHT22;6879;51.368;6.782;2022-10-16T06:22:31;12.60;99.90
13616;DHT22;6879;51.368;6.782;2022-10-16T06:24:59;12.60;99.90
13616;DHT22;6879;51.368;6.782;2022-10-16T06:27:28;12.70;99.90
13616;DHT22;6879;51.368;6.782;2022-10-16T06:29:57;12.70;99.90
13616;DHT22;6879;51.368;6.782;2022-10-16T06:32:27;12.70;99.90
13616;DHT22;6879;51.368;6.782;2022-10-16T06:34:55;12.70;99.90
13616;DHT22;6879;51.368;6.782;2022-10-16T06:37:24;12.80;99.90
13616;DHT22;6879;51.368;6.782;2022-10-16T06:39:53;12.90;99.90
13616;DHT22;6879;51.368;6.782;2022-10-16T06:42:21;13.00;99.90
13616;DHT22;6879;51.368;6.782;2022-10-16T06:44:50;13.10;99.90
13616;DHT22;6879;51.368;6.782;2022-10-16T06:47:20;13.10;99.90
13616;DHT22;6879;51.368;6.782;2022-10-16T06:49:48;13.20;99.90
13616;DHT22;6879;51.368;6.782;2022-10-16T06:52:20;13.20;99.90
13616;DHT22;6879;51.368;6.782;2022-10-16T06:54:49;13.20;99.90
13616;DHT22;6879;51.368;6.782;2022-10-16T06:57:18;13.30;99.90
13616;DHT22;6879;51.368;6.782;2022-10-16T06:59:46;13.30;99.90
13616;DHT22;6879;51.368;6.782;2022-10-16T07:02:22;13.40;99.90
13616;DHT22;6879;51.368;6.782;2022-10-16T07:04:51;13.50;99.90
13616;DHT22;6879;51.368;6.782;2022-10-16T07:07:23;13.60;99.90
13616;DHT22;6879;51.368;6.782;2022-10-16T07:09:53;13.60;99.90
13616;DHT22;6879;51.368;6.782;2022-10-16T07:12:22;13.60;99.90
13616;DHT22;6879;51.368;6.782;2022-10-16T07:14:50;13.60;99.90
13616;DHT22;6879;51.368;6.782;2022-10-16T07:17:22;13.70;99.90
13616;DHT22;6879;51.368;6.782;2022-10-16T07:19:50;13.70;99.90
13616;DHT22;6879;51.368;6.782;2022-10-16T07:22:20;13.70;99.90
13616;DHT22;6879;51.368;6.782;2022-10-16T07:24:48;13.70;99.90
13616;DHT22;6879;51.368;6.782;2022-10-16T07:27:18;13.70;99.90
13616;DHT22;6879;51.368;6.782;2022-10-16T07:29:49;13.70;99.90
13616;DHT22;6879;51.368;6.782;2022-10-16T07:32:17;13.70;99.90
13616;DHT22;6879;51.368;6.782;2022-10-16T07:34:48;13.70;99.90
13616;DHT22;6879;51.368;6.782;2022-10-16T07:37:16;13.80;99.90
13616;DHT22;6879;51.368;6.782;2022-10-16T07:39:44;13.90;99.90
13616;DHT22;6879;51.368;6.782;2022-10-16T07:42:13;14.00;99.90
13616;DHT22;6879;51.368;6.782;2022-10-16T07:44:41;14.10;99.90
13616;DHT22;6879;51.368;6.782;2022-10-16T07:47:10;14.20;99.90
13616;DHT22;6879;51.368;6.782;2022-10-16T07:49:38;14.30;99.90
13616;DHT22;6879;51.368;6.782;2022-10-16T07:52:08;14.40;99.90
13616;DHT22;6879;51.368;6.782;2022-10-16T07:54:37;14.50;99.90
13616;DHT22;6879;51.368;6.782;2022-10-16T07:57:05;14.60;99.90
13616;DHT22;6879;51.368;6.782;2022-10-16T07:59:33;14.80;99.90
13616;DHT22;6879;51.368;6.782;2022-10-16T08:02:02;14.90;99.90
13616;DHT22;6879;51.368;6.782;2022-10-16T08:04:30;15.00;99.90
13616;DHT22;6879;51.368;6.782;2022-10-16T08:06:59;15.10;99.90
13616;DHT22;6879;51.368;6.782;2022-10-16T08:09:29;15.20;99.90
13616;DHT22;6879;51.368;6.782;2022-10-16T08:11:58;15.20;99.90
13616;DHT22;6879;51.368;6.782;2022-10-16T08:14:28;15.40;99.90
13616;DHT22;6879;51.368;6.782;2022-10-16T08:16:57;15.40;99.90
13616;DHT22;6879;51.368;6.782;2022-10-16T08:19:25;15.50;99.90
13616;DHT22;6879;51.368;6.782;2022-10-16T08:21:53;15.60;99.90
13616;DHT22;6879;51.368;6.782;2022-10-16T08:24:22;15.60;99.90
13616;DHT22;6879;51.368;6.782;2022-10-16T08:26:53;15.70;99.90
13616;DHT22;6879;51.368;6.782;2022-10-16T08:29:21;15.80;99.90
13616;DHT22;6879;51.368;6.782;2022-10-16T08:31:50;15.80;99.90
13616;DHT22;6879;51.368;6.782;2022-10-16T08:34:19;15.90;99.90
13616;DHT22;6879;51.368;6.782;2022-10-16T08:36:47;15.90;99.90
13616;DHT22;6879;51.368;6.782;2022-10-16T08:39:16;16.00;99.90
13616;DHT22;6879;51.368;6.782;2022-10-16T08:42:25;16.00;99.90
13616;DHT22;6879;51.368;6.782;2022-10-16T08:45:19;16.10;99.90
13616;DHT22;6879;51.368;6.782;2022-10-16T08:47:54;16.20;99.90
13616;DHT22;6879;51.368;6.782;2022-10-16T08:50:29;16.20;99.90
13616;DHT22;6879;51.368;6.782;2022-10-16T08:52:59;16.30;99.90
13616;DHT22;6879;51.368;6.782;2022-10-16T08:55:33;16.30;99.90
13616;DHT22;6879;51.368;6.782;2022-10-16T08:58:13;16.40;99.90
13616;DHT22;6879;51.368;6.782;2022-10-16T09:00:43;16.40;99.90
13616;DHT22;6879;51.368;6.782;2022-10-16T09:03:25;16.50;99.90
13616;DHT22;6879;51.368;6.782;2022-10-16T09:06:05;16.50;99.90
13616;DHT22;6879;51.368;6.782;2022-10-16T09:08:46;16.50;99.90
13616;DHT22;6879;51.368;6.782;2022-10-16T09:11:23;16.60;99.90
13616;DHT22;6879;51.368;6.782;2022-10-16T09:14:00;16.70;99.90
13616;DHT22;6879;51.368;6.782;2022-10-16T09:16:35;16.70;99.90
13616;DHT22;6879;51.368;6.782;2022-10-16T09:19:12;16.80;99.90
13616;DHT22;6879;51.368;6.782;2022-10-16T09:21:44;16.90;99.90
13616;DHT22;6879;51.368;6.782;2022-10-16T09:24:14;17.00;99.90
13616;DHT22;6879;51.368;6.782;2022-10-16T09:26:44;17.10;99.90
13616;DHT22;6879;51.368;6.782;2022-10-16T09:29:15;17.10;99.90
13616;DHT22;6879;51.368;6.782;2022-10-16T09:31:44;17.10;99.90
13616;DHT22;6879;51.368;6.782;2022-10-16T09:34:20;17.20;99.90
13616;DHT22;6879;51.368;6.782;2022-10-16T09:36:53;17.30;99.90
13616;DHT22;6879;51.368;6.782;2022-10-16T09:39:21;17.30;99.90
13616;DHT22;6879;51.368;6.782;2022-10-16T09:41:50;17.40;99.90
13616;DHT22;6879;51.368;6.782;2022-10-16T09:44:24;17.40;99.90
13616;DHT22;6879;51.368;6.782;2022-10-16T09:47:01;17.50;99.90
13616;DHT22;6879;51.368;6.782;2022-10-16T09:49:30;17.50;99.90
13616;DHT22;6879;51.368;6.782;2022-10-16T09:52:06;17.60;99.90
13616;DHT22;6879;51.368;6.782;2022-10-16T09:54:34;17.70;99.90
13616;DHT22;6879;51.368;6.782;2022-10-16T09:57:06;17.80;99.50
13616;DHT22;6879;51.368;6.782;2022-10-16T09:59:47;17.90;99.10
13616;DHT22;6879;51.368;6.782;2022-10-16T10:02:19;17.90;99.00
13616;DHT22;6879;51.368;6.782;2022-10-16T10:04:50;18.00;98.00
13616;DHT22;6879;51.368;6.782;2022-10-16T10:07:25;18.10;98.40
13616;DHT22;6879;51.368;6.782;2022-10-16T10:09:56;18.10;97.40
13616;DHT22;6879;51.368;6.782;2022-10-16T10:12:26;18.10;97.70
13616;DHT22;6879;51.368;6.782;2022-10-16T10:15:03;18.20;97.50
13616;DHT22;6879;51.368;6.782;2022-10-16T10:17:32;18.40;97.30
13616;DHT22;6879;51.368;6.782;2022-10-16T10:20:21;18.60;96.60
13616;DHT22;6879;51.368;6.782;2022-10-16T10:22:50;18.70;96.10
13616;DHT22;6879;51.368;6.782;2022-10-16T10:25:42;18.80;95.20
13616;DHT22;6879;51.368;6.782;2022-10-16T10:28:47;19.10;94.80
13616;DHT22;6879;51.368;6.782;2022-10-16T10:31:24;19.50;92.90
13616;DHT22;6879;51.368;6.782;2022-10-16T10:33:58;19.80;92.30
13616;DHT22;6879;51.368;6.782;2022-10-16T10:36:32;20.40;91.10
13616;DHT22;6879;51.368;6.782;2022-10-16T10:39:05;21.00;89.40
13616;DHT22;6879;51.368;6.782;2022-10-16T10:42:11;21.60;87.50
13616;DHT22;6879;51.368;6.782;2022-10-16T10:45:03;22.10;86.20
13616;DHT22;6879;51.368;6.782;2022-10-16T10:47:48;21.80;86.80
13616;DHT22;6879;51.368;6.782;2022-10-16T10:50:24;21.50;86.80
13616;DHT22;6879;51.368;6.782;2022-10-16T10:53:00;21.60;87.10
13616;DHT22;6879;51.368;6.782;2022-10-16T10:55:39;22.40;85.30
13616;DHT22;6879;51.368;6.782;2022-10-16T10:58:33;23.40;82.80
13616;DHT22;6879;51.368;6.782;2022-10-16T11:01:08;23.60;82.00
13616;DHT22;6879;51.368;6.782;2022-10-16T11:03:54;24.10;80.40
13616;DHT22;6879;51.368;6.782;2022-10-16T11:06:29;24.10;79.80
13616;DHT22;6879;51.368;6.782;2022-10-16T11:09:02;24.10;80.30
13616;DHT22;6879;51.368;6.782;2022-10-16T11:11:40;24.70;79.40
13616;DHT22;6879;51.368;6.782;2022-10-16T11:14:15;25.00;77.70
13616;DHT22;6879;51.368;6.782;2022-10-16T11:16:50;24.70;77.10
13616;DHT22;6879;51.368;6.782;2022-10-16T11:19:31;24.80;78.40
13616;DHT22;6879;51.368;6.782;2022-10-16T11:22:06;25.30;77.60
13616;DHT22;6879;51.368;6.782;2022-10-16T11:24:42;26.20;76.50
13616;DHT22;6879;51.368;6.782;2022-10-16T11:27:23;26.80;74.00
13616;DHT22;6879;51.368;6.782;2022-10-16T11:29:59;27.10;73.90
13616;DHT22;6879;51.368;6.782;2022-10-16T11:32:32;27.30;73.10
13616;DHT22;6879;51.368;6.782;2022-10-16T11:35:11;26.30;73.30
13616;DHT22;6879;51.368;6.782;2022-10-16T11:37:43;24.20;77.40
13616;DHT22;6879;51.368;6.782;2022-10-16T11:40:23;23.20;80.10
13616;DHT22;6879;51.368;6.782;2022-10-16T11:43:06;22.80;82.20
13616;DHT22;6879;51.368;6.782;2022-10-16T11:45:43;24.00;80.10
13616;DHT22;6879;51.368;6.782;2022-10-16T11:48:20;24.80;78.40
13616;DHT22;6879;51.368;6.782;2022-10-16T11:50:57;25.50;76.50
13616;DHT22;6879;51.368;6.782;2022-10-16T11:53:41;25.20;75.60
13616;DHT22;6879;51.368;6.782;2022-10-16T11:56:20;25.20;76.30
13616;DHT22;6879;51.368;6.782;2022-10-16T11:58:54;24.60;77.60
13616;DHT22;6879;51.368;6.782;2022-10-16T12:01:30;24.70;78.50
13616;DHT22;6879;51.368;6.782;2022-10-16T12:04:11;25.80;76.30
13616;DHT22;6879;51.368;6.782;2022-10-16T12:06:46;26.30;75.10
13616;DHT22;6879;51.368;6.782;2022-10-16T12:09:20;26.30;74.80
13616;DHT22;6879;51.368;6.782;2022-10-16T12:11:50;26.90;73.90
13616;DHT22;6879;51.368;6.782;2022-10-16T12:17:35;26.60;72.30
13616;DHT22;6879;51.368;6.782;2022-10-16T12:20:23;27.30;72.10
13616;DHT22;6879;51.368;6.782;2022-10-16T12:22:56;26.80;72.90
13616;DHT22;6879;51.368;6.782;2022-10-16T12:25:28;26.60;72.90
13616;DHT22;6879;51.368;6.782;2022-10-16T12:28:01;26.20;73.70
13616;DHT22;6879;51.368;6.782;2022-10-16T12:30:32;26.00;74.30
13616;DHT22;6879;51.368;6.782;2022-10-16T12:33:03;25.60;75.40
13616;DHT22;6879;51.368;6.782;2022-10-16T12:35:34;25.50;75.50
13616;DHT22;6879;51.368;6.782;2022-10-16T12:38:16;25.80;74.30
13616;DHT22;6879;51.368;6.782;2022-10-16T12:40:46;26.60;74.00
13616;DHT22;6879;51.368;6.782;2022-10-16T12:43:28;26.40;73.20
13616;DHT22;6879;51.368;6.782;2022-10-16T12:46:21;25.50;74.20
13616;DHT22;6879;51.368;6.782;2022-10-16T12:48:50;25.00;76.00
13616;DHT22;6879;51.368;6.782;2022-10-16T12:51:35;24.90;77.30
13616;DHT22;6879;51.368;6.782;2022-10-16T12:54:13;26.30;74.30
13616;DHT22;6879;51.368;6.782;2022-10-16T12:56:51;27.10;72.90
13616;DHT22;6879;51.368;6.782;2022-10-16T12:59:31;28.80;70.40
13616;DHT22;6879;51.368;6.782;2022-10-16T13:02:18;30.20;67.50
13616;DHT22;6879;51.368;6.782;2022-10-16T13:05:09;29.60;66.10
13616;DHT22;6879;51.368;6.782;2022-10-16T13:07:49;27.70;69.70
13616;DHT22;6879;51.368;6.782;2022-10-16T13:10:26;26.80;71.60
13616;DHT22;6879;51.368;6.782;2022-10-16T13:16:10;25.80;73.50
13616;DHT22;6879;51.368;6.782;2022-10-16T13:18:51;25.20;74.80
13616;DHT22;6879;51.368;6.782;2022-10-16T13:21:39;24.60;76.10
13616;DHT22;6879;51.368;6.782;2022-10-16T13:24:22;23.80;76.60
13616;DHT22;6879;51.368;6.782;2022-10-16T13:27:03;23.60;77.60
13616;DHT22;6879;51.368;6.782;2022-10-16T13:29:35;24.20;77.20
13616;DHT22;6879;51.368;6.782;2022-10-16T13:32:09;24.50;75.50
13616;DHT22;6879;51.368;6.782;2022-10-16T13:34:44;24.10;75.90
13616;DHT22;6879;51.368;6.782;2022-10-16T13:37:20;23.60;76.70
13616;DHT22;6879;51.368;6.782;2022-10-16T13:39:49;24.00;76.50
13616;DHT22;6879;51.368;6.782;2022-10-16T13:42:23;24.30;76.30
13616;DHT22;6879;51.368;6.782;2022-10-16T13:44:55;24.20;76.30
13616;DHT22;6879;51.368;6.782;2022-10-16T13:47:28;24.10;76.60
13616;DHT22;6879;51.368;6.782;2022-10-16T13:50:01;24.00;75.70
13616;DHT22;6879;51.368;6.782;2022-10-16T13:52:31;24.10;76.00
13616;DHT22;6879;51.368;6.782;2022-10-16T13:54:59;24.40;75.90
13616;DHT22;6879;51.368;6.782;2022-10-16T13:57:30;24.40;75.40
13616;DHT22;6879;51.368;6.782;2022-10-16T13:59:58;24.30;75.50
13616;DHT22;6879;51.368;6.782;2022-10-16T14:02:30;24.30;76.10
13616;DHT22;6879;51.368;6.782;2022-10-16T14:05:02;25.20;74.30
13616;DHT22;6879;51.368;6.782;2022-10-16T14:07:33;27.10;71.30
13616;DHT22;6879;51.368;6.782;2022-10-16T14:10:04;28.40;68.40
13616;DHT22;6879;51.368;6.782;2022-10-16T14:12:35;29.10;65.70
13616;DHT22;6879;51.368;6.782;2022-10-16T14:15:05;27.90;67.60
13616;DHT22;6879;51.368;6.782;2022-10-16T14:17:35;25.60;70.40
13616;DHT22;6879;51.368;6.782;2022-10-16T14:20:06;24.20;73.80
13616;DHT22;6879;51.368;6.782;2022-10-16T14:22:58;23.50;75.70
13616;DHT22;6879;51.368;6.782;2022-10-16T14:25:29;22.90;77.20
13616;DHT22;6879;51.368;6.782;2022-10-16T14:28:03;22.70;78.40
13616;DHT22;6879;51.368;6.782;2022-10-16T14:30:52;22.50;78.90
13616;DHT22;6879;51.368;6.782;2022-10-16T14:33:23;22.50;80.40
13616;DHT22;6879;51.368;6.782;2022-10-16T14:36:02;22.90;78.50
13616;DHT22;6879;51.368;6.782;2022-10-16T14:38:32;23.40;77.60
13616;DHT22;6879;51.368;6.782;2022-10-16T14:41:01;23.40;77.20
13616;DHT22;6879;51.368;6.782;2022-10-16T14:43:34;23.30;77.70
13616;DHT22;6879;51.368;6.782;2022-10-16T14:46:06;22.80;78.60
13616;DHT22;6879;51.368;6.782;2022-10-16T14:48:40;22.40;79.20
13616;DHT22;6879;51.368;6.782;2022-10-16T14:51:13;22.30;80.10
13616;DHT22;6879;51.368;6.782;2022-10-16T14:53:42;22.20;80.10
13616;DHT22;6879;51.368;6.782;2022-10-16T14:56:17;22.10;80.70
13616;DHT22;6879;51.368;6.782;2022-10-16T14:58:48;21.90;80.70
13616;DHT22;6879;51.368;6.782;2022-10-16T15:01:18;21.60;81.80
13616;DHT22;6879;51.368;6.782;2022-10-16T15:03:47;21.40;82.30
13616;DHT22;6879;51.368;6.782;2022-10-16T15:06:16;21.10;82.80
13616;DHT22;6879;51.368;6.782;2022-10-16T15:08:44;21.00;83.00
13616;DHT22;6879;51.368;6.782;2022-10-16T15:11:15;20.90;83.10
13616;DHT22;6879;51.368;6.782;2022-10-16T15:13:44;20.70;84.20
13616;DHT22;6879;51.368;6.782;2022-10-16T15:16:15;20.60;85.90
13616;DHT22;6879;51.368;6.782;2022-10-16T15:18:44;20.60;85.70
13616;DHT22;6879;51.368;6.782;2022-10-16T15:21:26;20.40;87.10
13616;DHT22;6879;51.368;6.782;2022-10-16T15:23:56;20.40;88.40
13616;DHT22;6879;51.368;6.782;2022-10-16T15:26:26;20.20;88.00
13616;DHT22;6879;51.368;6.782;2022-10-16T15:28:55;20.20;88.40
13616;DHT22;6879;51.368;6.782;2022-10-16T15:31:25;20.10;89.10
13616;DHT22;6879;51.368;6.782;2022-10-16T15:33:54;19.90;90.40
13616;DHT22;6879;51.368;6.782;2022-10-16T15:36:30;19.90;91.60
13616;DHT22;6879;51.368;6.782;2022-10-16T15:39:00;19.70;92.10
13616;DHT22;6879;51.368;6.782;2022-10-16T15:41:30;19.70;92.60
13616;DHT22;6879;51.368;6.782;2022-10-16T15:43:58;19.60;93.50
13616;DHT22;6879;51.368;6.782;2022-10-16T15:46:29;19.50;94.30
13616;DHT22;6879;51.368;6.782;2022-10-16T15:49:00;19.40;94.40
13616;DHT22;6879;51.368;6.782;2022-10-16T15:51:29;19.30;94.90
13616;DHT22;6879;51.368;6.782;2022-10-16T15:54:00;19.20;95.50
13616;DHT22;6879;51.368;6.782;2022-10-16T15:56:29;19.00;96.20
13616;DHT22;6879;51.368;6.782;2022-10-16T15:59:00;18.90;96.90
13616;DHT22;6879;51.368;6.782;2022-10-16T16:01:33;19.10;96.30
13616;DHT22;6879;51.368;6.782;2022-10-16T16:04:03;19.00;96.20
13616;DHT22;6879;51.368;6.782;2022-10-16T16:06:46;19.00;96.70
13616;DHT22;6879;51.368;6.782;2022-10-16T16:09:14;18.80;96.80
13616;DHT22;6879;51.368;6.782;2022-10-16T16:11:43;18.70;97.00
13616;DHT22;6879;51.368;6.782;2022-10-16T16:14:13;18.60;97.50
13616;DHT22;6879;51.368;6.782;2022-10-16T16:16:43;18.40;97.90
13616;DHT22;6879;51.368;6.782;2022-10-16T16:19:11;18.40;98.50
13616;DHT22;6879;51.368;6.782;2022-10-16T16:21:40;18.20;99.30
13616;DHT22;6879;51.368;6.782;2022-10-16T16:24:08;18.20;99.70